Time;durP1;ratioP1;P1;durP2;ratioP2;P2;SDS_P1;SDS_P2;PMS_P1;PMS_P2;Temp;Humidity;BMP_temperature;BMP_pressure;BME280_temperature;BME280_humidity;BME280_pressure;Samples;Min_cycle;Max_cycle;Signal;HPM_P1;HPM_P2
2022/01/24 04:31:25;;;;;;;35.50;10.77;;;;;;;-1.48;66.77;93654.22;5658408;23;20565;-77
2022/01/24 04:33:51;;;;;;;26.75;10.32;;;;;;;-1.49;66.84;93650.88;4993636;28;20399;-77
2022/01/24 04:36:18;;;;;;;28.13;9.45;;;;;;;-1.48;67.11;93647.31;4972429;28;20061;-77
2022/01/24 04:38:44;;;;;;;32.92;9.55;;;;;;;-1.48;67.49;93646.53;5005348;28;20105;-77
2022/01/24 04:41:20;;;;;;;31.90;10.38;;;;;;;-1.47;67.64;93648.88;5002938;28;20491;-76
2022/01/24 04:43:53;;;;;;;28.92;10.57;;;;;;;-1.49;67.61;93650.88;4971705;28;20031;-77
2022/01/24 04:52:08;;;;;;;30.05;10.57;;;;;;;-1.54;67.72;93642.91;4908164;29;20210;-77
2022/01/24 04:54:44;;;;;;;32.55;12.13;;;;;;;-1.55;68.00;93638.75;4911675;29;20362;-77
2022/01/24 04:57:15;;;;;;;34.33;11.50;;;;;;;-1.55;67.96;93641.31;4962504;28;20496;-77
2022/01/24 04:59:44;;;;;;;35.33;11.25;;;;;;;-1.57;68.04;93627.88;4972614;28;20388;-77
2022/01/24 05:02:10;;;;;;;35.50;12.30;;;;;;;-1.55;68.35;93633.63;4954457;28;20479;-77
2022/01/24 05:04:36;;;;;;;37.15;11.77;;;;;;;-1.55;68.04;93625.91;4964354;28;20141;-77
2022/01/24 05:07:03;;;;;;;34.53;12.00;;;;;;;-1.53;68.26;93630.84;4990247;28;20295;-77
2022/01/24 05:09:34;;;;;;;39.30;12.85;;;;;;;-1.53;67.81;93628.28;4991591;28;20046;-77
2022/01/24 05:12:16;;;;;;;32.80;11.80;;;;;;;-1.57;68.33;93627.88;4984138;28;20225;-77
2022/01/24 05:25:49;;;;;;;32.22;11.30;;;;;;;-1.54;67.17;93624.94;4976127;28;20034;-77
2022/01/24 05:28:15;;;;;;;36.72;11.30;;;;;;;-1.54;66.87;93616.44;4959516;28;20044;-76
2022/01/24 05:30:41;;;;;;;33.15;10.60;;;;;;;-1.53;67.49;93621.41;4977291;28;20062;-77
2022/01/24 05:33:07;;;;;;;28.52;10.07;;;;;;;-1.64;66.76;93611.63;4960964;28;20046;-77
2022/01/24 05:35:32;;;;;;;26.52;10.18;;;;;;;-1.54;66.57;93612.09;4976542;28;20038;-77
2022/01/24 05:37:58;;;;;;;31.00;11.25;;;;;;;-1.53;66.61;93618.81;4976472;28;20026;-77
2022/01/24 05:40:25;;;;;;;29.48;9.27;;;;;;;-1.51;67.25;93616.88;4977224;28;20056;-77
2022/01/24 05:42:50;;;;;;;35.70;10.25;;;;;;;-1.51;66.09;93611.72;4977135;28;20034;-77
2022/01/24 05:45:16;;;;;;;30.48;9.73;;;;;;;-1.51;65.72;93605.78;4985619;28;20049;-78
2022/01/24 05:47:42;;;;;;;33.47;9.98;;;;;;;-1.50;65.46;93605.59;4963807;28;20424;-76
2022/01/24 05:50:08;;;;;;;29.92;10.10;;;;;;;-1.50;65.66;93600.47;4957577;28;20046;-77
2022/01/24 05:52:34;;;;;;;29.65;9.15;;;;;;;-1.47;65.15;93607.78;4975223;28;20344;-77
2022/01/24 05:54:59;;;;;;;29.67;9.40;;;;;;;-1.47;65.05;93607.00;4984803;28;20037;-77
2022/01/24 05:57:25;;;;;;;26.65;8.68;;;;;;;-1.50;65.59;93595.34;4964011;28;20030;-78
2022/01/24 05:59:51;;;;;;;25.00;9.20;;;;;;;-1.47;65.68;93594.94;4964670;28;20545;-78
2022/01/24 06:02:16;;;;;;;26.73;8.90;;;;;;;-1.47;65.19;93587.25;4962145;28;20421;-77
2022/01/24 06:04:42;;;;;;;23.65;8.85;;;;;;;-1.48;64.39;93588.25;4975279;28;20049;-78
2022/01/24 06:07:08;;;;;;;17.85;6.43;;;;;;;-1.47;65.47;93592.38;4998576;28;20129;-78
2022/01/24 06:09:33;;;;;;;23.52;8.00;;;;;;;-1.47;64.96;93584.69;4996175;28;20046;-78
2022/01/24 06:11:59;;;;;;;16.73;6.25;;;;;;;-1.47;64.83;93583.88;4976784;28;20038;-77
2022/01/24 06:14:24;;;;;;;23.10;7.65;;;;;;;-1.48;64.99;93590.03;4979034;28;20447;-77
2022/01/24 06:16:50;;;;;;;25.35;7.28;;;;;;;-1.53;64.26;93588.00;4978411;28;20480;-77
2022/01/24 06:19:16;;;;;;;25.30;8.68;;;;;;;-1.49;64.29;93589.22;4978609;28;20052;-76
2022/01/24 06:21:44;;;;;;;24.80;7.70;;;;;;;-1.48;64.79;93590.03;4979240;28;20032;-78
2022/01/24 06:24:10;;;;;;;26.00;9.75;;;;;;;-1.49;64.20;93589.22;4996768;28;20042;-78
2022/01/24 06:26:36;;;;;;;24.95;8.65;;;;;;;-1.48;64.15;93584.88;4996330;28;20040;-80
2022/01/24 06:29:02;;;;;;;31.73;8.90;;;;;;;-1.46;64.50;93588.06;4981376;28;20543;-78
2022/01/24 06:31:28;;;;;;;31.08;8.50;;;;;;;-1.46;64.93;93582.94;4998108;28;20523;-78
2022/01/24 06:33:54;;;;;;;24.63;9.63;;;;;;;-1.44;64.29;93587.84;4981168;28;20042;-78
2022/01/24 06:36:19;;;;;;;27.25;9.77;;;;;;;-1.46;64.67;93577.78;4963454;28;20444;-78
2022/01/24 06:38:45;;;;;;;24.38;8.63;;;;;;;-1.47;64.61;93587.25;4981683;28;20045;-77
2022/01/24 06:41:11;;;;;;;21.50;7.85;;;;;;;-1.43;65.20;93582.53;4997876;28;20068;-78
2022/01/24 06:43:36;;;;;;;24.05;7.68;;;;;;;-1.38;64.88;93580.19;4997603;28;20045;-78
2022/01/24 06:46:02;;;;;;;21.77;7.68;;;;;;;-1.38;64.90;93584.56;4980985;28;20038;-78
2022/01/24 06:48:28;;;;;;;21.88;7.88;;;;;;;-1.38;64.79;93584.56;4997972;28;20045;-78
2022/01/24 06:50:54;;;;;;;19.77;7.68;;;;;;;-1.35;64.10;93579.03;4980581;28;20483;-78
2022/01/24 06:53:20;;;;;;;25.52;9.20;;;;;;;-1.29;64.35;93581.66;4997806;28;20045;-78
2022/01/24 06:55:46;;;;;;;18.60;7.82;;;;;;;-1.28;64.04;93572.97;4964139;28;20443;-78
2022/01/24 06:58:11;;;;;;;27.63;7.88;;;;;;;-1.28;64.09;93572.97;4964520;28;20125;-78
2022/01/24 07:00:37;;;;;;;23.67;7.50;;;;;;;-1.25;63.89;93571.81;4980610;28;20034;-77
2022/01/24 07:03:03;;;;;;;25.80;7.97;;;;;;;-1.26;64.01;93581.31;4997462;28;20038;-77
2022/01/24 07:05:29;;;;;;;19.17;7.15;;;;;;;-1.24;64.86;93580.31;4997442;28;20121;-78
2022/01/24 07:07:57;;;;;;;23.90;7.68;;;;;;;-1.24;64.07;93570.81;4979369;28;20038;-76
2022/01/24 07:10:26;;;;;;;25.02;7.68;;;;;;;-1.28;63.63;93560.13;4996707;28;20030;-78
2022/01/24 07:12:52;;;;;;;21.77;8.63;;;;;;;-1.08;63.45;93575.69;4963884;28;20061;-77
2022/01/24 07:15:20;;;;;;;20.20;7.60;;;;;;;-0.73;62.79;93575.69;4997097;28;20117;-78
2022/01/24 07:18:56;;;;;;;20.65;7.43;;;;;;;0.97;58.39;93567.91;4980798;28;20042;-78
2022/01/24 07:20:47;;;;;;;17.83;7.57;;;;;;;3.72;52.44;93564.16;4986492;28;20088;-78
2022/01/24 07:23:12;;;;;;;25.50;8.27;;;;;;;5.44;47.86;93565.22;4997787;28;20026;-79
2022/01/24 07:25:38;;;;;;;17.95;7.35;;;;;;;7.03;44.13;93565.53;4980582;28;20042;-79
2022/01/24 07:28:04;;;;;;;23.58;7.90;;;;;;;8.41;40.37;93550.84;4995776;28;20045;-79
2022/01/24 07:30:29;;;;;;;29.27;9.27;;;;;;;9.66;37.82;93563.53;4981720;28;20034;-79
2022/01/24 07:32:55;;;;;;;33.90;9.98;;;;;;;10.77;35.21;93555.53;4982365;28;20046;-79
2022/01/24 07:35:21;;;;;;;25.95;9.35;;;;;;;11.86;32.65;93557.75;4981687;28;20068;-79
2022/01/24 07:37:46;;;;;;;27.67;10.07;;;;;;;12.89;30.77;93550.19;4961249;28;20065;-79
2022/01/24 07:40:13;;;;;;;26.65;9.57;;;;;;;13.71;29.19;93552.13;4979486;28;20046;-79
2022/01/24 07:45:17;;;;;;;24.35;9.38;;;;;;;15.44;26.65;93544.81;4979928;28;20046;-78
2022/01/24 07:47:42;;;;;;;28.70;10.23;;;;;;;16.35;25.90;93555.56;4996273;28;20034;-79
2022/01/24 07:50:08;;;;;;;31.73;11.25;;;;;;;16.38;24.91;93559.47;4978588;28;20627;-78
2022/01/24 07:52:35;;;;;;;31.55;11.98;;;;;;;15.64;25.55;93562.16;4979532;28;20030;-79
2022/01/24 07:55:01;;;;;;;34.38;12.23;;;;;;;15.89;25.11;93559.06;4998056;28;20042;-79
2022/01/24 07:57:27;;;;;;;36.30;13.10;;;;;;;15.82;25.73;93558.69;4996814;28;20030;-78
2022/01/24 07:59:52;;;;;;;32.75;12.63;;;;;;;17.27;23.90;93556.19;4978466;28;20717;-79
2022/01/24 08:02:18;;;;;;;31.33;12.20;;;;;;;17.93;22.83;93558.28;4962477;28;20050;-79
2022/01/24 08:04:43;;;;;;;29.90;11.32;;;;;;;17.68;23.08;93557.84;4996129;28;20064;-79
2022/01/24 08:07:09;;;;;;;35.30;12.27;;;;;;;18.35;22.45;93548.16;4978856;28;20034;-79
2022/01/24 08:09:34;;;;;;;35.85;12.68;;;;;;;19.48;21.38;93552.75;4978988;28;20034;-80
2022/01/24 08:12:01;;;;;;;33.15;13.48;;;;;;;20.03;20.74;93546.66;4996291;28;20026;-79
2022/01/24 08:14:27;;;;;;;33.08;12.27;;;;;;;19.62;20.68;93553.31;4978704;28;20096;-78
2022/01/24 08:16:53;;;;;;;28.52;12.48;;;;;;;19.44;20.40;93551.81;4996134;28;20034;-78
2022/01/24 08:19:19;;;;;;;31.25;12.63;;;;;;;20.64;19.90;93553.56;4996398;28;20057;-79
2022/01/24 08:21:45;;;;;;;30.88;12.82;;;;;;;20.64;19.47;93553.56;4974688;28;20030;-79
2022/01/24 08:24:12;;;;;;;29.70;12.02;;;;;;;20.73;19.63;93559.59;4973423;28;20495;-79
2022/01/24 08:26:37;;;;;;;32.33;12.23;;;;;;;20.83;19.21;93553.13;4996507;28;20037;-78
2022/01/24 08:29:04;;;;;;;27.25;12.25;;;;;;;21.87;18.43;93551.44;4997151;28;20042;-79
2022/01/24 08:31:30;;;;;;;30.15;12.35;;;;;;;22.83;17.94;93549.13;4985363;28;20051;-80
2022/01/24 08:33:56;;;;;;;30.08;12.60;;;;;;;22.87;17.27;93546.56;4978960;28;20053;-80
2022/01/24 08:36:22;;;;;;;28.08;12.13;;;;;;;23.23;17.04;93539.59;4988894;28;20366;-78
2022/01/24 08:38:50;;;;;;;24.70;11.30;;;;;;;23.48;16.90;93546.41;4991373;28;20046;-78
2022/01/24 08:41:26;;;;;;;29.55;13.43;;;;;;;22.78;16.95;93546.69;4996647;28;20479;-78
2022/01/24 08:44:11;;;;;;;31.60;12.25;;;;;;;22.22;17.84;93552.63;4993872;28;20034;-78
2022/01/24 08:46:37;;;;;;;28.83;12.85;;;;;;;22.74;17.26;93553.03;4986439;28;20043;-78
2022/01/24 08:49:03;;;;;;;29.75;13.07;;;;;;;22.96;17.30;93557.09;4961718;28;20031;-79
2022/01/24 08:51:42;;;;;;;33.95;12.73;;;;;;;21.18;18.88;93545.66;4958014;28;20085;-79
2022/01/24 08:54:13;;;;;;;;;;;;;;;20.41;19.67;93566.34;4979764;28;20058;-78
2022/01/24 08:56:39;;;;;;;29.80;13.63;;;;;;;20.00;20.24;93557.94;5000581;28;19932;-78
2022/01/24 08:59:05;;;;;;;29.98;13.13;;;;;;;20.88;19.51;93563.59;4995138;28;20080;-79
2022/01/24 09:01:31;;;;;;;34.80;13.15;;;;;;;19.43;21.40;93560.84;4964133;28;20046;-78
2022/01/24 09:03:57;;;;;;;27.50;12.50;;;;;;;18.30;21.80;93562.31;4981709;28;20066;-79
2022/01/24 09:06:23;;;;;;;25.55;12.65;;;;;;;16.36;24.17;93569.53;4982013;28;20086;-78
2022/01/24 09:08:55;;;;;;;27.02;12.18;;;;;;;14.82;27.23;93574.00;4982536;28;20030;-78
2022/01/24 09:11:30;;;;;;;33.05;13.18;;;;;;;13.84;28.66;93579.63;4982185;28;20058;-78
2022/01/24 09:13:57;;;;;;;40.65;11.43;;;;;;;14.35;28.01;93579.84;4964076;28;20030;-78
2022/01/24 09:16:24;;;;;;;44.05;12.10;;;;;;;12.44;31.01;93581.72;4963605;28;20526;-78
2022/01/24 09:18:50;;;;;;;27.27;10.20;;;;;;;13.34;28.95;93579.84;4979535;28;20074;-78
2022/01/24 09:21:16;;;;;;;31.95;10.13;;;;;;;13.90;28.13;93584.56;4975493;28;20415;-78
2022/01/24 09:23:42;;;;;;;26.90;11.45;;;;;;;12.91;30.60;93582.22;5000037;28;20064;-77
2022/01/24 09:26:07;;;;;;;25.80;9.80;;;;;;;12.48;30.13;93595.09;4981610;28;20026;-78
2022/01/24 09:28:33;;;;;;;23.35;8.60;;;;;;;11.82;28.44;93590.81;4999355;28;20054;-78
2022/01/24 09:30:59;;;;;;;21.98;9.18;;;;;;;12.14;30.16;93585.25;4995381;28;20043;-78
2022/01/24 09:33:26;;;;;;;23.38;9.02;;;;;;;12.48;28.86;93595.09;4962497;28;20054;-78
2022/01/24 09:35:53;;;;;;;23.83;10.35;;;;;;;11.79;31.55;93597.38;4979595;28;20039;-78
2022/01/24 09:38:20;;;;;;;35.15;11.18;;;;;;;11.37;33.46;93600.34;4962891;28;20049;-80
2022/01/24 09:40:46;;;;;;;32.80;11.73;;;;;;;11.34;32.89;93606.91;4979096;28;20053;-78
2022/01/24 09:43:12;;;;;;;25.80;10.68;;;;;;;12.02;32.02;93606.56;4964934;28;20129;-78
2022/01/24 09:45:38;;;;;;;24.73;8.52;;;;;;;11.90;30.94;93613.94;4998766;28;20034;-77
2022/01/24 09:48:04;;;;;;;22.08;9.43;;;;;;;10.81;32.62;93614.22;4998730;28;20027;-78
2022/01/24 09:50:30;;;;;;;18.50;8.02;;;;;;;10.16;32.45;93603.25;4981093;28;20073;-78
2022/01/24 09:52:55;;;;;;;22.92;9.85;;;;;;;9.55;35.98;93609.75;4981595;28;20456;-78
2022/01/24 09:55:23;;;;;;;13.82;5.65;;;;;;;7.64;37.96;93631.53;4972976;28;20022;-78
2022/01/24 09:57:50;;;;;;;26.52;9.95;;;;;;;8.44;37.34;93632.00;4998456;28;20061;-78
2022/01/24 10:00:19;;;;;;;23.15;9.95;;;;;;;8.90;35.59;93627.25;4997279;28;20029;-77
2022/01/24 10:02:46;;;;;;;22.15;6.72;;;;;;;8.91;35.35;93621.00;4990521;28;20046;-78
2022/01/24 10:05:33;;;;;;;20.60;6.90;;;;;;;8.14;37.63;93630.59;4998864;28;20025;-78
2022/01/24 10:08:03;;;;;;;21.92;9.00;;;;;;;7.68;38.96;93632.63;4997851;28;20066;-78
2022/01/24 10:10:30;;;;;;;36.47;9.63;;;;;;;8.25;38.24;93636.72;4996792;28;20042;-78
2022/01/24 10:18:10;;;;;;;27.65;10.43;;;;;;;9.42;36.93;93635.53;4998025;28;20076;-78
2022/01/24 10:20:40;;;;;;;30.15;10.07;;;;;;;9.35;35.73;93646.19;4964801;28;20069;-78
2022/01/24 10:23:16;;;;;;;28.42;10.05;;;;;;;9.40;35.88;93643.59;4978122;28;20049;-78
2022/01/24 10:26:02;;;;;;;22.05;8.63;;;;;;;9.02;36.96;93642.00;4962345;28;20038;-78
2022/01/24 10:28:33;;;;;;;17.23;8.13;;;;;;;8.81;37.18;93646.25;4961319;28;20035;-78
2022/01/24 10:31:02;;;;;;;23.08;8.27;;;;;;;8.06;39.13;93643.25;4978064;28;20040;-78
2022/01/24 10:33:27;;;;;;;19.73;8.13;;;;;;;7.66;39.60;93644.31;4960874;28;20045;-77
2022/01/24 10:35:53;;;;;;;32.35;11.35;;;;;;;8.22;39.87;93641.63;4979425;28;20039;-77
2022/01/24 10:38:44;;;;;;;28.73;11.50;;;;;;;8.41;39.06;93635.13;4959766;28;20065;-78
2022/01/24 10:41:25;;;;;;;36.55;14.52;;;;;;;7.67;41.48;93633.63;4975196;28;20038;-79
2022/01/24 10:43:55;;;;;;;33.08;11.68;;;;;;;7.79;41.21;93643.19;4975526;28;20031;-79
2022/01/24 10:46:30;;;;;;;22.42;9.90;;;;;;;7.23;43.85;93650.97;4974387;28;20042;-79
2022/01/24 10:49:06;;;;;;;27.52;10.63;;;;;;;7.78;41.91;93641.59;4960977;28;20057;-78
2022/01/24 10:51:46;;;;;;;30.35;11.88;;;;;;;7.27;43.71;93632.03;4994962;28;20372;-78
2022/01/24 10:54:26;;;;;;;32.72;14.40;;;;;;;8.29;41.89;93650.09;4979406;28;20143;-79
2022/01/24 10:56:53;;;;;;;37.83;16.52;;;;;;;8.07;41.96;93648.25;4998245;28;20026;-79
2022/01/24 10:59:25;;;;;;;24.42;10.30;;;;;;;7.88;42.10;93639.13;4996281;28;20038;-79
2022/01/24 11:01:53;;;;;;;27.33;11.63;;;;;;;7.18;44.63;93646.47;4997031;28;20042;-78
2022/01/24 11:04:21;;;;;;;38.75;15.55;;;;;;;7.91;43.25;93654.31;4979029;28;20046;-79
2022/01/24 11:06:52;;;;;;;38.65;18.00;;;;;;;8.42;42.38;93643.72;4978443;28;20081;-78
2022/01/24 11:09:19;;;;;;;14.88;8.32;;;;;;;7.55;43.61;93648.59;4996845;28;20034;-79
2022/01/24 11:11:46;;;;;;;26.77;11.80;;;;;;;8.01;43.41;93649.22;4995987;28;20045;-78
2022/01/24 11:14:16;;;;;;;34.92;15.50;;;;;;;8.31;42.89;93640.97;4963177;28;20414;-78
2022/01/24 11:16:42;;;;;;;29.35;11.98;;;;;;;7.51;44.62;93645.66;4976530;28;20040;-78
2022/01/24 11:19:15;;;;;;;38.05;17.25;;;;;;;7.02;45.61;93644.63;4943220;28;20014;-77
2022/01/24 11:21:42;;;;;;;36.35;14.98;;;;;;;7.23;45.12;93643.94;4977019;28;20030;-78
2022/01/24 11:24:09;;;;;;;36.92;14.20;;;;;;;7.05;45.58;93646.78;4944291;28;20042;-78
2022/01/24 11:26:36;;;;;;;43.38;17.77;;;;;;;7.44;44.83;93645.03;4959638;28;20038;-78
2022/01/24 11:29:02;;;;;;;45.33;18.55;;;;;;;6.78;45.95;93642.16;4975924;28;20081;-77
2022/01/24 11:31:40;;;;;;;43.08;16.95;;;;;;;7.64;44.40;93641.16;4978684;28;20509;-78
2022/01/24 11:34:13;;;;;;;37.22;16.90;;;;;;;8.83;42.18;93634.50;4979171;28;20488;-78
2022/01/24 11:36:44;;;;;;;44.22;18.65;;;;;;;8.98;40.63;93640.91;4995477;28;20503;-78
2022/01/24 11:39:10;;;;;;;41.70;17.75;;;;;;;9.04;39.69;93635.47;4965612;28;20093;-78
2022/01/24 11:41:39;;;;;;;49.67;18.33;;;;;;;9.05;40.42;93634.47;4960008;28;20027;-77
2022/01/24 11:44:10;;;;;;;37.05;16.00;;;;;;;9.25;39.99;93631.19;4960413;28;20042;-78
2022/01/24 11:46:46;;;;;;;39.22;15.73;;;;;;;8.25;41.97;93634.13;4957856;28;20035;-78
2022/01/24 11:49:36;;;;;;;41.30;16.80;;;;;;;7.96;43.28;93636.13;4960540;28;20058;-77
2022/01/24 11:52:10;;;;;;;26.00;11.85;;;;;;;6.94;46.01;93635.41;4978608;28;20057;-73
2022/01/24 11:54:46;;;;;;;33.35;14.88;;;;;;;6.87;46.04;93635.56;4989613;28;20033;-73
2022/01/24 11:57:24;;;;;;;47.60;18.83;;;;;;;7.62;45.50;93636.19;4975377;28;20054;-73
2022/01/24 12:00:12;;;;;;;30.60;12.40;;;;;;;7.50;45.27;93630.28;4986641;28;20026;-73
2022/01/24 12:03:01;;;;;;;27.08;12.57;;;;;;;7.29;46.34;93640.41;4986327;28;20053;-73
2022/01/24 12:05:39;;;;;;;19.60;10.75;;;;;;;6.62;47.41;93640.28;4991874;28;20399;-73
2022/01/24 12:08:07;;;;;;;49.65;19.98;;;;;;;6.49;47.62;93632.81;4968095;28;20073;-73
2022/01/24 12:10:35;;;;;;;58.58;22.42;;;;;;;7.05;47.30;93628.56;4972075;28;20133;-73
2022/01/24 12:13:30;;;;;;;59.83;22.80;;;;;;;6.79;47.30;93628.13;4989426;28;20041;-73
2022/01/24 12:16:02;;;;;;;60.83;23.27;;;;;;;7.32;46.56;93631.31;4988803;28;20113;-73
2022/01/24 12:18:29;;;;;;;47.20;18.20;;;;;;;7.01;47.34;93624.84;4992064;28;20514;-73
2022/01/24 12:21:06;;;;;;;55.58;22.20;;;;;;;6.74;47.73;93630.63;4986832;28;20109;-73
2022/01/24 12:23:56;;;;;;;43.25;16.38;;;;;;;6.75;47.09;93629.59;4965901;28;20062;-73
2022/01/24 12:26:25;;;;;;;53.72;21.30;;;;;;;7.63;45.40;93637.78;4990360;28;20085;-74
2022/01/24 12:29:01;;;;;;;66.10;25.58;;;;;;;6.70;47.32;93624.31;4991255;28;20033;-74
2022/01/24 12:31:33;;;;;;;29.80;14.70;;;;;;;6.80;47.60;93624.50;4968048;28;20530;-74
2022/01/24 12:34:20;;;;;;;41.28;17.98;;;;;;;7.11;46.28;93624.22;4971941;28;20480;-74
2022/01/24 12:37:00;;;;;;;29.83;12.88;;;;;;;7.29;45.86;93627.38;4971783;28;20057;-74
2022/01/24 12:39:27;;;;;;;52.83;18.77;;;;;;;7.58;45.59;93629.88;4976024;28;20034;-74
2022/01/24 12:42:00;;;;;;;32.35;14.32;;;;;;;7.16;46.27;93606.06;4987445;28;20030;-74
2022/01/24 12:47:12;;;;;;;25.38;11.30;;;;;;;7.08;45.77;93609.84;4954378;28;20045;-74
2022/01/24 12:49:40;;;;;;;52.15;17.65;;;;;;;7.71;45.06;93619.09;4971654;28;20080;-74
2022/01/24 12:52:11;;;;;;;34.60;15.10;;;;;;;7.45;45.78;93619.78;4971681;28;20019;-74
2022/01/24 12:54:39;;;;;;;62.10;25.85;;;;;;;7.84;44.96;93619.81;4972882;28;20092;-74
2022/01/24 12:57:14;;;;;;;68.93;27.30;;;;;;;8.25;44.35;93609.88;4973577;28;20344;-74
2022/01/24 12:59:50;;;;;;;71.00;26.48;;;;;;;8.32;43.92;93618.28;4973718;28;20034;-75
2022/01/24 13:02:24;;;;;;;36.25;14.68;;;;;;;7.84;45.21;93614.59;4973731;28;20073;-73
2022/01/24 13:04:52;;;;;;;39.00;18.95;;;;;;;7.78;45.04;93618.16;4989057;28;20117;-74
2022/01/24 13:07:18;;;;;;;26.15;12.45;;;;;;;6.99;47.01;93616.47;4974096;28;20391;-74
2022/01/24 13:09:44;;;;;;;46.55;21.50;;;;;;;7.68;45.82;93614.38;4973460;28;20042;-74
2022/01/24 13:12:10;;;;;;;37.35;17.33;;;;;;;6.96;46.94;93615.13;4957524;28;20088;-75
2022/01/24 13:25:27;;;;;;;54.78;23.40;;;;;;;7.57;46.35;93632.72;4989510;28;20034;-75
2022/01/24 13:27:58;;;;;;;38.67;16.92;;;;;;;7.35;45.57;93624.84;4973346;28;20051;-74
2022/01/24 13:30:25;;;;;;;49.10;18.65;;;;;;;7.66;45.98;93631.28;4990558;28;20129;-74
2022/01/24 13:32:51;;;;;;;44.22;19.95;;;;;;;7.76;45.80;93631.41;4990647;28;20052;-74
2022/01/24 13:35:25;;;;;;;67.88;27.33;;;;;;;7.71;45.39;93636.56;4983827;28;20492;-74
2022/01/24 13:37:55;;;;;;;61.30;22.80;;;;;;;7.63;44.14;93629.97;4974939;28;20039;-74
2022/01/24 13:40:41;;;;;;;45.45;13.88;;;;;;;7.48;42.50;93635.72;4974794;28;20029;-74
2022/01/24 13:43:09;;;;;;;51.10;20.45;;;;;;;7.27;44.43;93628.63;4985474;28;20037;-74
2022/01/24 13:45:42;;;;;;;55.53;21.23;;;;;;;7.75;44.47;93635.06;4958369;28;20089;-74
2022/01/24 13:48:20;;;;;;;45.78;15.38;;;;;;;7.38;44.35;93637.38;4974734;28;20047;-74
2022/01/24 13:50:54;;;;;;;51.80;19.55;;;;;;;7.44;43.39;93639.03;4974498;28;20038;-74
2022/01/24 13:53:32;;;;;;;32.35;14.27;;;;;;;7.32;43.43;93635.72;4978596;28;20088;-74
2022/01/24 13:55:58;;;;;;;33.83;13.35;;;;;;;7.42;41.66;93641.09;4991204;28;20066;-73
2022/01/24 13:58:27;;;;;;;40.33;15.57;;;;;;;7.19;43.17;93653.25;4972122;28;20061;-74
2022/01/24 14:01:00;;;;;;;56.13;22.02;;;;;;;7.33;43.53;93650.34;4974414;28;20043;-74
2022/01/24 14:03:26;;;;;;;44.55;18.63;;;;;;;6.93;44.71;93648.66;4957042;28;20538;-74
2022/01/24 14:06:14;;;;;;;62.47;22.92;;;;;;;7.47;43.87;93656.81;4953451;28;20035;-74
2022/01/24 14:08:41;;;;;;;54.53;19.60;;;;;;;7.62;43.13;93658.84;4974368;28;20480;-74
2022/01/24 14:11:15;;;;;;;29.63;10.18;;;;;;;7.18;44.36;93662.09;4957301;28;20388;-74
2022/01/24 14:13:52;;;;;;;52.97;18.77;;;;;;;7.29;44.11;93658.63;4959222;28;20042;-74
2022/01/24 14:16:38;;;;;;;38.38;16.15;;;;;;;7.32;42.95;93665.19;4954327;28;20053;-73
2022/01/24 14:19:04;;;;;;;63.85;20.15;;;;;;;7.35;44.00;93669.13;4974014;28;20046;-74
2022/01/24 14:21:30;;;;;;;62.67;23.45;;;;;;;7.14;43.81;93671.41;4977795;28;20038;-74
2022/01/24 14:23:56;;;;;;;39.28;14.70;;;;;;;6.97;44.74;93660.19;4988436;28;20042;-74
2022/01/24 14:26:24;;;;;;;57.67;20.00;;;;;;;7.14;43.96;93663.59;4976260;28;20400;-74
2022/01/24 14:29:04;;;;;;;63.55;24.77;;;;;;;7.12;44.37;93668.25;4974522;28;20030;-74
2022/01/24 14:31:30;;;;;;;31.90;11.65;;;;;;;6.94;44.01;93671.06;4991697;28;20519;-74
2022/01/24 14:34:01;;;;;;;61.03;23.90;;;;;;;7.08;44.73;93677.53;4993385;28;20468;-74
2022/01/24 14:36:27;;;;;;;58.72;22.25;;;;;;;7.34;43.81;93670.94;4993557;28;20492;-74
2022/01/24 14:39:02;;;;;;;38.33;15.10;;;;;;;7.31;43.21;93676.63;4991592;28;20027;-74
2022/01/24 14:41:44;;;;;;;62.15;19.83;;;;;;;7.26;43.88;93672.13;4993257;28;20042;-74
2022/01/24 14:46:56;;;;;;;40.17;13.90;;;;;;;6.66;44.48;93688.25;4992852;28;20042;-74
2022/01/24 14:49:25;;;;;;;28.00;10.23;;;;;;;6.72;44.40;93679.53;4957961;28;20034;-74
2022/01/24 14:51:54;;;;;;;62.17;19.02;;;;;;;6.86;43.51;93687.84;4993024;28;20041;-74
2022/01/24 14:54:21;;;;;;;45.10;18.00;;;;;;;6.78;44.02;93693.44;4975640;28;20081;-74
2022/01/24 14:56:50;;;;;;;49.17;18.67;;;;;;;6.61;44.73;93693.38;4975499;28;20065;-74
2022/01/24 14:59:15;;;;;;;43.45;16.60;;;;;;;6.39;45.60;93696.59;4989048;28;20034;-74
2022/01/24 15:01:41;;;;;;;67.85;22.35;;;;;;;6.55;45.51;93694.28;4924333;28;20045;-74
2022/01/24 15:04:08;;;;;;;55.75;19.50;;;;;;;6.74;45.10;93697.53;4973459;28;20031;-74
2022/01/24 15:06:34;;;;;;;47.65;17.42;;;;;;;6.59;45.41;93701.41;4940287;28;20077;-74
2022/01/24 15:09:05;;;;;;;65.10;23.88;;;;;;;6.68;45.32;93704.44;4943512;28;20042;-79
2022/01/24 15:11:31;;;;;;;59.08;21.55;;;;;;;6.71;44.55;93710.97;4972751;28;20172;-81
2022/01/24 15:14:06;;;;;;;61.95;21.45;;;;;;;6.98;44.49;93706.00;4995705;28;20041;-79
2022/01/24 15:27:01;;;;;;;57.22;21.67;;;;;;;7.16;43.14;93721.44;4975043;28;20045;-78
2022/01/24 15:29:28;;;;;;;66.00;23.58;;;;;;;6.88;44.25;93724.84;4995536;28;20042;-80
2022/01/24 15:31:55;;;;;;;55.90;21.67;;;;;;;6.64;45.10;93734.53;4995279;28;20365;-79
2022/01/24 15:34:22;;;;;;;58.95;22.85;;;;;;;6.36;45.82;93738.66;4995219;28;20510;-80
2022/01/24 15:36:48;;;;;;;57.05;22.80;;;;;;;6.10;46.35;93739.94;4977400;28;20037;-79
2022/01/24 15:39:15;;;;;;;65.07;22.42;;;;;;;5.95;46.87;93742.22;4995421;28;20038;-78
2022/01/24 15:42:04;;;;;;;64.20;22.75;;;;;;;5.80;47.43;93737.44;4996594;28;20030;-78
2022/01/24 15:49:41;;;;;;;66.93;22.75;;;;;;;5.34;48.88;93754.56;4994877;28;20042;-77
2022/01/24 15:52:07;;;;;;;61.25;24.55;;;;;;;5.19;49.84;93758.34;4994125;28;20041;-78
2022/01/24 15:54:33;;;;;;;70.00;24.42;;;;;;;5.04;50.28;93763.13;4958928;28;20033;-78
2022/01/24 15:59:45;;;;;;;78.70;25.00;;;;;;;4.76;51.35;93759.31;4974291;28;20034;-79
2022/01/24 16:02:11;;;;;;;71.05;26.63;;;;;;;4.64;51.77;93768.84;4995848;28;20030;-78
2022/01/24 16:04:37;;;;;;;78.68;26.55;;;;;;;4.53;52.23;93772.16;4958562;28;20035;-78
2022/01/24 16:07:04;;;;;;;69.95;25.65;;;;;;;4.47;52.31;93768.63;4987860;28;20100;-79
2022/01/24 16:09:30;;;;;;;75.45;25.33;;;;;;;4.17;52.64;93747.81;4995089;28;20119;-79
2022/01/24 16:11:55;;;;;;;67.05;25.70;;;;;;;4.21;52.99;93779.28;4947371;28;20149;-79
2022/01/24 16:14:21;;;;;;;66.22;24.45;;;;;;;4.06;53.31;93788.19;4979808;28;20048;-79
2022/01/24 16:16:48;;;;;;;62.78;24.90;;;;;;;3.92;53.92;93784.94;4980091;28;20060;-79
2022/01/24 16:19:16;;;;;;;67.57;26.88;;;;;;;3.74;54.32;93787.47;4979619;28;20112;-79
2022/01/24 16:21:58;;;;;;;71.20;27.08;;;;;;;3.67;54.78;93792.72;4977877;28;20092;-78
2022/01/24 16:26:57;;;;;;;73.20;25.42;;;;;;;3.43;55.68;93807.22;4979552;28;20049;-80
2022/01/24 16:29:24;;;;;;;63.85;24.83;;;;;;;3.27;56.15;93800.75;4979087;28;20026;-77
2022/01/24 16:31:50;;;;;;;62.17;23.52;;;;;;;3.23;56.41;93807.34;4978528;28;20061;-78
2022/01/24 16:34:17;;;;;;;61.95;24.83;;;;;;;3.13;56.40;93815.56;4961173;28;20042;-77
2022/01/24 16:36:43;;;;;;;72.57;25.33;;;;;;;3.02;56.62;93818.81;4977841;28;20134;-78
2022/01/24 16:39:11;;;;;;;68.32;24.80;;;;;;;2.93;57.28;93812.28;4994546;28;20026;-76
2022/01/24 16:47:07;;;;;;;66.75;23.58;;;;;;;2.69;57.38;93830.06;4958582;28;20412;-76
2022/01/24 16:49:40;;;;;;;65.60;23.58;;;;;;;2.65;57.29;93834.06;4992508;28;20038;-75
2022/01/24 16:52:08;;;;;;;66.32;25.13;;;;;;;2.60;57.16;93841.63;4957419;28;20038;-74
2022/01/24 16:54:35;;;;;;;64.03;24.17;;;;;;;2.50;57.27;93852.41;4958969;28;20038;-79
2022/01/24 16:57:02;;;;;;;68.47;23.90;;;;;;;2.45;57.27;93848.81;4974709;28;20049;-78
2022/01/24 16:59:28;;;;;;;60.38;23.65;;;;;;;2.39;57.76;93853.03;4991109;28;20034;-77
2022/01/24 17:01:54;;;;;;;57.78;21.63;;;;;;;2.32;57.60;93852.25;4939546;28;20108;-77
2022/01/24 17:04:21;;;;;;;63.40;22.73;;;;;;;2.29;58.05;93861.19;4947751;28;20038;-77
2022/01/24 17:06:50;;;;;;;60.95;24.70;;;;;;;2.21;58.19;93858.81;4988204;28;20038;-78
2022/01/24 17:09:15;;;;;;;62.22;23.00;;;;;;;2.19;58.33;93855.63;4993248;28;20393;-80
2022/01/24 17:11:44;;;;;;;58.83;22.05;;;;;;;2.11;58.85;93861.00;4964797;28;20042;-80